Time;durP1;ratioP1;P1;durP2;ratioP2;P2;SDS_P1;SDS_P2;PMS_P1;PMS_P2;Temp;Humidity;BMP_temperature;BMP_pressure;BME280_temperature;BME280_humidity;BME280_pressure;Samples;Min_cycle;Max_cycle;Signal;HPM_P1;HPM_P2
2023/01/12 00:01:31;;;;;;;1.30;1.05;;;7.10;99.90;;;;;;5063879;28;20283;-85
2023/01/12 00:03:58;;;;;;;1.88;1.40;;;7.00;99.50;;;;;;5064743;28;20209;-84
2023/01/12 00:06:25;;;;;;;2.60;1.35;;;6.80;99.50;;;;;;5065183;28;20204;-84
2023/01/12 00:08:53;;;;;;;2.20;1.40;;;6.70;99.60;;;;;;5065561;28;20587;-84
2023/01/12 00:11:20;;;;;;;3.30;1.13;;;6.70;99.80;;;;;;5068742;28;20206;-84
2023/01/12 00:13:48;;;;;;;3.20;1.67;;;6.70;99.90;;;;;;5067313;28;20205;-84
2023/01/12 00:16:36;;;;;;;1.30;1.20;;;6.50;99.90;;;;;;5066660;28;20197;-84
2023/01/12 00:19:05;;;;;;;2.47;1.50;;;6.40;99.90;;;;;;5067316;28;20581;-84
2023/01/12 00:21:35;;;;;;;2.70;1.47;;;6.30;99.90;;;;;;5070299;28;20205;-84
2023/01/12 00:24:02;;;;;;;1.60;1.10;;;6.30;99.90;;;;;;5066280;28;20225;-84
2023/01/12 00:26:29;;;;;;;1.63;1.20;;;6.30;99.90;;;;;;5068176;28;20783;-84
2023/01/12 00:28:57;;;;;;;1.50;1.33;;;6.30;99.90;;;;;;5060300;28;20212;-84
2023/01/12 00:31:24;;;;;;;1.63;1.50;;;6.20;99.90;;;;;;5065935;28;20240;-83
2023/01/12 00:33:51;;;;;;;1.80;1.20;;;6.10;99.90;;;;;;5065070;28;20197;-84
2023/01/12 00:36:19;;;;;;;4.22;1.73;;;6.00;99.90;;;;;;5067862;28;20197;-84
2023/01/12 00:38:47;;;;;;;2.27;1.47;;;5.90;99.90;;;;;;5066706;28;20205;-83
2023/01/12 00:45:20;;;;;;;4.23;1.33;;;5.80;99.90;;;;;;5063250;28;20198;-83
2023/01/12 00:46:48;;;;;;;2.43;1.40;;;5.80;99.90;;;;;;5066720;28;20286;-84
2023/01/12 00:49:15;;;;;;;2.93;1.70;;;5.60;99.90;;;;;;5066578;28;20198;-83
2023/01/12 00:51:41;;;;;;;3.80;1.30;;;5.60;99.90;;;;;;5068555;28;20220;-84
2023/01/12 00:54:08;;;;;;;3.50;1.60;;;5.60;99.90;;;;;;5066125;28;20229;-84
2023/01/12 00:56:36;;;;;;;2.20;1.50;;;5.60;99.90;;;;;;5068066;28;20200;-84
2023/01/12 00:59:05;;;;;;;1.87;1.60;;;5.50;99.90;;;;;;5066765;28;20340;-83
2023/01/12 01:01:33;;;;;;;2.27;1.57;;;5.40;99.90;;;;;;5067016;28;20205;-83
2023/01/12 01:04:00;;;;;;;3.03;2.17;;;5.40;99.90;;;;;;5063711;28;20224;-84
2023/01/12 01:06:27;;;;;;;3.37;1.67;;;5.40;99.90;;;;;;5064329;28;20657;-84
2023/01/12 01:08:53;;;;;;;3.93;1.93;;;5.40;99.90;;;;;;5064384;28;20209;-84
2023/01/12 01:11:20;;;;;;;2.87;1.80;;;5.40;99.90;;;;;;5065235;28;20209;-85
2023/01/12 01:13:47;;;;;;;6.83;2.10;;;5.40;99.90;;;;;;5064236;28;20212;-84
2023/01/12 01:16:17;;;;;;;4.93;2.33;;;5.40;99.90;;;;;;5066942;28;20229;-84
2023/01/12 01:18:44;;;;;;;4.87;1.80;;;5.30;99.90;;;;;;5064235;28;20206;-84
2023/01/12 01:21:12;;;;;;;4.20;2.30;;;5.30;99.90;;;;;;5063769;28;20219;-84
2023/01/12 01:23:40;;;;;;;5.00;1.60;;;5.30;99.90;;;;;;5067309;28;20226;-83
2023/01/12 01:26:10;;;;;;;5.23;1.70;;;5.20;99.90;;;;;;5058796;28;20209;-84
2023/01/12 01:28:37;;;;;;;3.63;1.60;;;5.30;99.90;;;;;;5067195;28;20541;-83
2023/01/12 01:31:05;;;;;;;5.10;2.20;;;5.20;99.90;;;;;;5065611;28;20230;-83
2023/01/12 01:33:33;;;;;;;2.87;1.60;;;5.30;99.90;;;;;;5063494;28;20212;-84
2023/01/12 01:36:01;;;;;;;4.73;2.13;;;5.30;99.90;;;;;;5066552;28;20241;-83
2023/01/12 01:38:28;;;;;;;6.57;1.80;;;5.30;99.90;;;;;;5065029;28;20576;-84
2023/01/12 01:40:54;;;;;;;2.30;1.70;;;5.30;99.90;;;;;;5060825;28;20209;-84
2023/01/12 01:43:23;;;;;;;2.00;1.40;;;5.20;99.90;;;;;;5058162;28;20213;-84
2023/01/12 01:45:56;;;;;;;4.90;1.90;;;5.20;99.90;;;;;;5063930;28;20213;-83
2023/01/12 01:48:23;;;;;;;6.70;1.70;;;5.20;99.90;;;;;;5060423;28;20205;-84
2023/01/12 01:50:57;;;;;;;3.50;1.70;;;5.20;99.90;;;;;;5065192;28;20235;-84
2023/01/12 01:53:27;;;;;;;4.17;1.87;;;5.20;99.90;;;;;;5062158;28;20211;-84
2023/01/12 01:55:58;;;;;;;2.93;1.47;;;5.20;99.90;;;;;;5061850;28;20228;-84
2023/01/12 01:58:29;;;;;;;5.03;1.73;;;5.20;99.90;;;;;;5063112;28;20684;-83
2023/01/12 02:00:56;;;;;;;4.10;1.70;;;5.20;99.90;;;;;;5059693;28;20208;-84
2023/01/12 02:03:24;;;;;;;5.00;1.60;;;5.20;99.90;;;;;;5063569;28;20467;-84
2023/01/12 02:05:53;;;;;;;5.60;1.67;;;5.20;99.90;;;;;;5065911;28;20220;-83
2023/01/12 02:08:26;;;;;;;4.37;1.80;;;5.20;99.90;;;;;;5053322;28;20839;-82
2023/01/12 02:10:55;;;;;;;5.27;1.53;;;5.10;99.90;;;;;;5062910;28;20552;-83
2023/01/12 02:16:20;;;;;;;5.13;1.60;;;5.20;99.90;;;;;;5066051;28;20617;-84
2023/01/12 02:19:05;;;;;;;4.47;1.30;;;5.20;99.90;;;;;;5059145;28;20201;-84
2023/01/12 02:22:02;;;;;;;3.23;2.10;;;5.10;99.90;;;;;;5062132;28;20575;-83
2023/01/12 02:24:56;;;;;;;5.83;2.20;;;5.00;99.90;;;;;;5065371;28;20209;-81
2023/01/12 02:27:33;;;;;;;4.50;1.40;;;4.90;99.90;;;;;;5064323;28;20201;-81
2023/01/12 02:30:29;;;;;;;7.03;1.87;;;4.90;99.90;;;;;;5060759;28;20198;-83
2023/01/12 02:33:09;;;;;;;4.33;1.60;;;4.90;99.90;;;;;;5063585;28;20683;-83
2023/01/12 02:35:44;;;;;;;3.47;1.60;;;4.90;99.90;;;;;;5060765;28;20220;-83
2023/01/12 02:38:20;;;;;;;4.40;1.53;;;4.90;99.90;;;;;;5062914;28;20219;-84
2023/01/12 02:40:58;;;;;;;4.37;1.73;;;4.90;99.90;;;;;;5059780;28;20680;-83
2023/01/12 02:43:28;;;;;;;4.47;1.60;;;4.80;99.90;;;;;;5065834;28;20200;-83
2023/01/12 02:46:02;;;;;;;5.37;1.60;;;4.80;99.90;;;;;;5063182;28;20212;-84
2023/01/12 02:48:36;;;;;;;5.80;1.80;;;4.80;99.90;;;;;;5059758;28;20212;-84
2023/01/12 02:51:08;;;;;;;5.40;1.90;;;4.70;99.90;;;;;;5065089;28;20570;-83
2023/01/12 02:53:42;;;;;;;4.10;1.77;;;4.80;99.90;;;;;;5061343;28;20571;-83
2023/01/12 02:56:11;;;;;;;5.17;1.93;;;4.70;99.90;;;;;;5059769;28;20708;-82
2023/01/12 02:58:47;;;;;;;3.17;1.43;;;4.70;99.90;;;;;;5062331;28;20193;-84
2023/01/12 03:01:16;;;;;;;3.73;1.90;;;4.70;99.90;;;;;;5053593;28;20210;-83
2023/01/12 03:03:46;;;;;;;5.83;1.60;;;4.70;99.90;;;;;;5063252;28;20209;-82
2023/01/12 03:06:14;;;;;;;3.67;1.40;;;4.60;99.90;;;;;;5058798;28;20673;-83
2023/01/12 03:08:41;;;;;;;4.37;1.80;;;4.60;99.90;;;;;;5061925;28;20582;-84
2023/01/12 03:11:14;;;;;;;5.87;1.53;;;4.60;99.90;;;;;;5062214;28;20205;-84
2023/01/12 03:13:45;;;;;;;3.57;1.80;;;4.60;99.90;;;;;;5064138;28;20564;-83
2023/01/12 03:16:16;;;;;;;5.90;2.00;;;4.60;99.90;;;;;;5067869;28;20746;-84
2023/01/12 03:18:50;;;;;;;5.53;1.80;;;4.70;99.90;;;;;;5067338;28;20561;-83
2023/01/12 03:21:25;;;;;;;4.07;1.40;;;4.70;99.90;;;;;;5065771;28;20212;-82
2023/01/12 03:23:58;;;;;;;4.73;1.70;;;4.80;99.90;;;;;;5063817;28;20866;-83
2023/01/12 03:26:27;;;;;;;6.37;2.03;;;4.70;99.90;;;;;;5066729;28;20304;-82
2023/01/12 03:28:59;;;;;;;4.80;1.47;;;4.80;99.90;;;;;;5066692;28;21128;-82
2023/01/12 03:31:26;;;;;;;4.23;1.80;;;4.80;99.90;;;;;;5069025;28;20236;-83
2023/01/12 03:33:55;;;;;;;3.93;1.30;;;4.80;99.90;;;;;;5067201;28;20208;-83
2023/01/12 03:36:31;;;;;;;4.00;1.47;;;4.80;99.90;;;;;;5062969;28;20693;-82
2023/01/12 03:39:07;;;;;;;3.20;1.70;;;4.80;99.90;;;;;;5061171;28;20216;-82
2023/01/12 03:41:45;;;;;;;6.60;1.53;;;4.70;99.90;;;;;;5063944;28;20422;-82
2023/01/12 03:44:19;;;;;;;3.10;1.70;;;4.70;99.90;;;;;;5063270;28;20657;-83
2023/01/12 03:46:54;;;;;;;5.43;1.40;;;4.90;99.90;;;;;;5063705;28;20688;-83
2023/01/12 03:49:29;;;;;;;5.23;1.70;;;4.80;99.70;;;;;;5066749;28;20201;-83
2023/01/12 03:51:59;;;;;;;2.97;1.30;;;4.90;99.40;;;;;;5063741;28;20212;-84
2023/01/12 03:54:27;;;;;;;3.63;1.53;;;4.80;99.50;;;;;;5064577;28;20199;-83
2023/01/12 03:56:54;;;;;;;2.87;1.53;;;4.80;99.30;;;;;;5067901;28;20232;-83
2023/01/12 03:59:22;;;;;;;4.87;1.90;;;4.80;99.40;;;;;;5065895;28;20204;-83
2023/01/12 04:01:50;;;;;;;2.20;1.13;;;4.80;99.40;;;;;;5060620;28;20202;-83
2023/01/12 04:04:17;;;;;;;4.27;1.60;;;4.70;99.50;;;;;;5066021;28;20205;-82
2023/01/12 04:06:45;;;;;;;6.03;1.50;;;4.70;99.50;;;;;;5062481;28;20213;-82
2023/01/12 04:09:12;;;;;;;4.63;1.77;;;4.70;99.40;;;;;;5066861;28;20208;-83
2023/01/12 04:14:23;;;;;;;3.50;1.47;;;4.70;99.30;;;;;;5066152;28;20209;-83
2023/01/12 04:16:50;;;;;;;3.60;1.40;;;4.70;99.70;;;;;;5061911;28;20228;-81
2023/01/12 04:19:16;;;;;;;4.33;1.40;;;4.70;99.10;;;;;;5064113;28;20668;-82
2023/01/12 04:24:29;;;;;;;3.63;1.40;;;4.70;99.40;;;;;;5067781;28;20334;-82
2023/01/12 04:26:55;;;;;;;4.73;1.63;;;4.70;99.10;;;;;;5058928;28;20221;-83
2023/01/12 04:29:22;;;;;;;2.33;1.50;;;4.60;99.20;;;;;;5065627;28;20201;-82
2023/01/12 04:31:49;;;;;;;3.27;1.50;;;4.60;99.30;;;;;;5062909;28;20234;-82
2023/01/12 04:34:15;;;;;;;7.67;1.20;;;4.60;99.10;;;;;;5068230;28;20213;-82
2023/01/12 04:36:42;;;;;;;3.53;1.47;;;4.60;99.00;;;;;;5063030;28;20232;-82
2023/01/12 04:39:10;;;;;;;2.37;1.30;;;4.70;98.70;;;;;;5065497;28;20205;-82
2023/01/12 04:41:37;;;;;;;3.23;1.33;;;4.70;98.60;;;;;;5067111;28;20201;-82
2023/01/12 04:44:04;;;;;;;4.17;1.30;;;4.80;98.30;;;;;;5064274;28;20204;-82
2023/01/12 04:46:31;;;;;;;5.70;1.53;;;4.80;98.00;;;;;;5063794;28;20202;-83
2023/01/12 04:48:58;;;;;;;4.97;1.80;;;4.80;97.90;;;;;;5068023;28;20652;-83
2023/01/12 04:51:25;;;;;;;6.30;1.60;;;4.70;97.90;;;;;;5061191;28;20197;-82
2023/01/12 04:53:52;;;;;;;6.00;1.60;;;4.70;98.10;;;;;;5066459;28;20204;-83
2023/01/12 04:56:20;;;;;;;5.10;1.60;;;4.70;98.20;;;;;;5067388;28;20697;-82
2023/01/12 04:58:47;;;;;;;4.47;1.60;;;4.70;98.00;;;;;;5063578;28;20206;-82
2023/01/12 05:01:15;;;;;;;3.13;1.40;;;4.70;97.90;;;;;;5067877;28;20218;-82
2023/01/12 05:03:43;;;;;;;5.10;1.50;;;4.70;97.60;;;;;;5066476;28;20212;-82
2023/01/12 05:06:10;;;;;;;5.03;1.73;;;4.70;97.60;;;;;;5064553;28;20556;-81
2023/01/12 05:11:27;;;;;;;2.73;1.53;;;4.60;98.00;;;;;;5063853;28;20258;-82
2023/01/12 05:13:54;;;;;;;4.53;1.20;;;4.70;97.90;;;;;;5065516;28;20284;-82
2023/01/12 05:16:20;;;;;;;5.87;1.63;;;4.60;97.70;;;;;;5068487;28;20230;-83
2023/01/12 05:18:47;;;;;;;5.60;1.40;;;4.70;97.60;;;;;;5068503;28;20197;-82
2023/01/12 05:21:16;;;;;;;4.90;1.40;;;4.60;97.70;;;;;;5065438;28;20212;-82
2023/01/12 05:23:43;;;;;;;4.93;1.17;;;4.60;97.90;;;;;;5064798;28;20259;-82
2023/01/12 05:26:11;;;;;;;3.70;1.67;;;4.50;98.00;;;;;;5065028;28;20677;-83
2023/01/12 05:28:39;;;;;;;5.50;1.83;;;4.50;98.10;;;;;;5058443;28;20235;-82
2023/01/12 05:31:07;;;;;;;4.60;1.87;;;4.50;97.60;;;;;;5063100;28;20248;-82
2023/01/12 05:33:34;;;;;;;6.97;2.00;;;4.60;97.60;;;;;;5063158;28;20201;-81
2023/01/12 05:36:05;;;;;;;4.43;1.40;;;4.60;97.60;;;;;;5067319;28;20557;-80
2023/01/12 05:38:31;;;;;;;3.83;1.40;;;4.60;97.40;;;;;;5064476;28;20201;-83
2023/01/12 05:40:59;;;;;;;4.30;1.30;;;4.60;97.60;;;;;;5064748;28;20567;-82
2023/01/12 05:46:12;;;;;;;6.13;1.30;;;4.50;97.60;;;;;;5065390;28;20244;-82
2023/01/12 05:48:38;;;;;;;3.87;1.70;;;4.50;97.60;;;;;;5063768;28;20201;-82
2023/01/12 05:51:07;;;;;;;4.03;1.90;;;4.50;97.30;;;;;;5061431;28;20696;-82
2023/01/12 05:53:34;;;;;;;4.37;1.70;;;4.50;97.60;;;;;;5058634;28;20628;-83
2023/01/12 05:56:06;;;;;;;5.23;1.60;;;4.40;97.70;;;;;;5063772;28;20231;-82
2023/01/12 05:58:33;;;;;;;5.63;1.50;;;4.30;98.00;;;;;;5064354;28;20276;-83
2023/01/12 06:01:00;;;;;;;4.30;1.60;;;4.30;98.10;;;;;;5058809;28;20416;-83
2023/01/12 06:03:28;;;;;;;3.90;1.60;;;4.30;98.00;;;;;;5063288;28;20205;-82
2023/01/12 06:05:57;;;;;;;5.30;1.60;;;4.30;98.00;;;;;;5064640;28;20205;-83
2023/01/12 06:08:24;;;;;;;4.03;1.43;;;4.30;97.50;;;;;;5065895;28;20201;-82
2023/01/12 06:10:51;;;;;;;4.37;1.60;;;4.50;97.00;;;;;;5062178;28;20227;-89
2023/01/12 06:16:04;;;;;;;4.13;1.70;;;4.60;96.80;;;;;;5063085;28;20711;-85
2023/01/12 06:18:36;;;;;;;4.60;1.43;;;4.70;96.30;;;;;;5053134;28;20212;-85
2023/01/12 06:21:03;;;;;;;4.53;1.57;;;4.60;95.90;;;;;;5061100;28;20197;-85
2023/01/12 06:23:30;;;;;;;5.97;2.10;;;4.60;96.70;;;;;;5057338;28;20229;-85
2023/01/12 06:26:00;;;;;;;6.57;2.10;;;4.50;96.80;;;;;;5063673;28;20262;-84
2023/01/12 06:28:27;;;;;;;4.80;1.57;;;4.60;96.20;;;;;;5061546;28;20214;-87
2023/01/12 06:30:58;;;;;;;7.77;2.00;;;4.70;95.90;;;;;;5060812;28;20234;-83
2023/01/12 06:33:26;;;;;;;5.07;1.70;;;4.70;95.80;;;;;;5057499;28;20213;-83
2023/01/12 06:35:54;;;;;;;7.33;1.70;;;4.70;95.90;;;;;;5062427;28;20224;-83
2023/01/12 06:38:23;;;;;;;4.43;2.00;;;4.70;95.70;;;;;;5058464;28;20205;-84
2023/01/12 06:40:51;;;;;;;6.33;1.73;;;4.80;95.40;;;;;;5062265;28;20678;-85
2023/01/12 06:43:19;;;;;;;4.03;2.20;;;4.90;95.10;;;;;;5061287;28;20580;-83
2023/01/12 06:45:46;;;;;;;5.47;2.13;;;4.90;95.00;;;;;;5064082;28;20197;-83
2023/01/12 06:48:13;;;;;;;5.10;1.87;;;5.00;94.90;;;;;;5061823;28;20555;-82
2023/01/12 06:50:39;;;;;;;7.63;1.73;;;5.00;95.10;;;;;;5062252;28;20198;-83
2023/01/12 06:53:08;;;;;;;6.90;2.10;;;5.10;94.40;;;;;;5064370;28;20201;-84
2023/01/12 06:55:35;;;;;;;5.50;1.70;;;5.20;93.70;;;;;;5068773;28;20281;-84
2023/01/12 06:58:04;;;;;;;5.63;1.67;;;5.30;92.90;;;;;;5065504;28;20217;-84
2023/01/12 07:00:31;;;;;;;5.67;1.53;;;5.40;92.70;;;;;;5069364;28;20204;-84
2023/01/12 07:02:58;;;;;;;3.23;1.80;;;5.50;92.60;;;;;;5066920;28;20205;-84
2023/01/12 07:05:25;;;;;;;4.50;1.83;;;5.60;92.30;;;;;;5068124;28;20198;-84
2023/01/12 07:07:59;;;;;;;5.10;1.50;;;5.60;92.00;;;;;;5065916;28;20796;-84
2023/01/12 07:10:27;;;;;;;5.33;1.53;;;5.70;91.70;;;;;;5068192;28;20204;-84
2023/01/12 07:12:54;;;;;;;8.37;1.67;;;5.70;91.50;;;;;;5066557;28;20212;-84
2023/01/12 07:15:21;;;;;;;4.90;1.70;;;5.70;91.60;;;;;;5065200;28;20202;-84
2023/01/12 07:17:48;;;;;;;5.80;1.60;;;5.80;91.30;;;;;;5068124;28;20224;-85
2023/01/12 07:20:15;;;;;;;4.37;1.30;;;5.90;90.50;;;;;;5068179;28;20205;-84
2023/01/12 07:22:42;;;;;;;4.53;1.60;;;5.90;91.00;;;;;;5062927;28;20228;-84
2023/01/12 07:25:09;;;;;;;5.67;1.97;;;5.80;91.10;;;;;;5070685;28;20205;-84
2023/01/12 07:27:37;;;;;;;4.00;1.40;;;5.80;90.90;;;;;;5065238;28;20224;-84
2023/01/12 07:30:05;;;;;;;6.20;1.40;;;5.90;90.60;;;;;;5062850;28;20595;-84
2023/01/12 07:32:31;;;;;;;6.43;1.50;;;6.00;89.80;;;;;;5070666;28;20201;-84
2023/01/12 07:34:58;;;;;;;5.60;1.43;;;6.00;90.40;;;;;;5065789;28;20205;-84
2023/01/12 07:37:25;;;;;;;3.40;1.50;;;6.00;89.60;;;;;;5070000;28;20240;-84
2023/01/12 07:39:52;;;;;;;5.82;1.40;;;6.00;90.50;;;;;;5069143;28;20201;-84
2023/01/12 07:42:25;;;;;;;4.70;1.40;;;6.00;90.00;;;;;;5067016;28;20227;-84
2023/01/12 07:44:53;;;;;;;3.03;1.33;;;5.90;89.90;;;;;;5063042;28;20289;-84
2023/01/12 07:47:20;;;;;;;4.73;1.50;;;6.00;89.60;;;;;;5070051;28;20209;-84
2023/01/12 07:49:49;;;;;;;5.67;1.87;;;6.00;89.60;;;;;;5064786;28;20202;-85
2023/01/12 07:52:16;;;;;;;6.27;1.60;;;6.10;89.70;;;;;;5070616;28;20253;-85
2023/01/12 07:54:43;;;;;;;6.13;1.97;;;6.10;89.70;;;;;;5068202;28;20212;-85
2023/01/12 07:57:11;;;;;;;5.63;1.60;;;6.20;88.00;;;;;;5069208;28;20704;-84
2023/01/12 07:59:38;;;;;;;2.43;1.20;;;6.20;87.30;;;;;;5067317;28;20314;-83
2023/01/12 08:02:09;;;;;;;6.77;1.60;;;6.30;87.90;;;;;;5067774;28;20232;-85
2023/01/12 08:04:36;;;;;;;3.93;1.30;;;6.20;89.40;;;;;;5065057;28;20209;-84
2023/01/12 08:07:03;;;;;;;4.37;1.37;;;6.20;87.90;;;;;;5067339;28;20212;-85
2023/01/12 08:09:30;;;;;;;5.77;1.60;;;6.20;88.30;;;;;;5069639;28;20220;-86
2023/01/12 08:11:57;;;;;;;3.00;1.20;;;6.20;87.90;;;;;;5069607;28;20657;-84
2023/01/12 08:14:27;;;;;;;4.17;1.50;;;6.20;89.70;;;;;;5060440;28;20573;-85
2023/01/12 08:17:00;;;;;;;5.10;1.70;;;6.20;88.10;;;;;;5060969;28;20225;-86
2023/01/12 08:19:36;;;;;;;5.88;1.20;;;6.30;87.30;;;;;;5069914;28;20201;-85
2023/01/12 08:22:07;;;;;;;3.97;1.20;;;6.40;89.30;;;;;;5067270;28;20201;-86
2023/01/12 08:24:39;;;;;;;4.93;1.50;;;6.60;87.10;;;;;;5059273;28;20230;-86
2023/01/12 08:27:08;;;;;;;4.38;1.50;;;6.80;87.80;;;;;;5069091;28;20208;-86
2023/01/12 08:29:40;;;;;;;2.95;1.33;;;7.00;84.20;;;;;;5069449;28;20753;-85
2023/01/12 08:32:09;;;;;;;4.35;1.52;;;7.20;81.70;;;;;;5069631;28;20236;-85
2023/01/12 08:34:39;;;;;;;3.88;1.40;;;7.30;78.50;;;;;;5054205;28;20198;-86
2023/01/12 08:37:09;;;;;;;5.40;1.42;;;7.40;77.90;;;;;;5064854;28;20597;-86
2023/01/12 08:39:37;;;;;;;6.15;1.60;;;7.50;76.80;;;;;;5068335;28;20212;-86
2023/01/12 08:42:05;;;;;;;5.18;1.40;;;7.50;78.70;;;;;;5064616;28;20212;-86
2023/01/12 08:44:33;;;;;;;4.65;1.42;;;7.60;74.10;;;;;;5065640;28;20197;-86
2023/01/12 08:47:00;;;;;;;5.40;1.67;;;7.60;77.10;;;;;;5058092;28;20213;-86
2023/01/12 08:49:29;;;;;;;4.80;1.35;;;7.70;72.60;;;;;;5066062;28;20205;-86
2023/01/12 08:51:58;;;;;;;4.90;1.80;;;7.80;72.60;;;;;;5062133;28;20698;-86
2023/01/12 08:54:25;;;;;;;3.00;1.30;;;7.80;69.40;;;;;;5066466;28;20209;-86
2023/01/12 08:56:52;;;;;;;6.30;1.88;;;7.80;69.20;;;;;;5065613;28;20684;-85
2023/01/12 08:59:19;;;;;;;4.70;1.45;;;7.90;73.30;;;;;;5060159;28;20212;-86
2023/01/12 09:01:46;;;;;;;6.30;1.58;;;7.90;72.70;;;;;;5066502;28;20212;-86
2023/01/12 09:04:13;;;;;;;7.40;1.48;;;7.90;71.50;;;;;;5066306;28;20205;-86
2023/01/12 09:06:42;;;;;;;2.85;1.48;;;7.90;72.70;;;;;;5067009;28;20212;-86
2023/01/12 09:09:12;;;;;;;2.78;1.50;;;8.10;68.90;;;;;;5066981;28;20213;-86
2023/01/12 09:11:41;;;;;;;4.30;1.70;;;8.10;71.80;;;;;;5058421;28;20202;-86
2023/01/12 09:14:09;;;;;;;1.75;1.27;;;8.20;71.40;;;;;;5057727;28;20205;-86
2023/01/12 09:16:36;;;;;;;4.82;1.30;;;8.30;65.60;;;;;;5066412;28;20209;-86
2023/01/12 09:19:03;;;;;;;6.45;1.80;;;8.50;65.20;;;;;;5064510;28;20665;-86
2023/01/12 09:21:31;;;;;;;4.22;1.75;;;8.50;60.90;;;;;;5063989;28;20216;-86
2023/01/12 09:23:58;;;;;;;4.00;1.30;;;8.60;59.10;;;;;;5063063;28;20224;-86
2023/01/12 09:26:30;;;;;;;2.70;1.40;;;8.60;62.50;;;;;;5065074;28;20201;-86
2023/01/12 09:28:58;;;;;;;5.70;1.67;;;8.60;56.20;;;;;;5065021;28;20299;-86
2023/01/12 09:31:26;;;;;;;3.67;1.35;;;8.50;58.00;;;;;;5066742;28;20225;-86
2023/01/12 09:33:53;;;;;;;8.27;1.70;;;8.60;58.90;;;;;;5059971;28;20662;-86
2023/01/12 09:36:21;;;;;;;5.88;1.67;;;8.60;58.70;;;;;;5064606;28;20209;-87
2023/01/12 09:38:49;;;;;;;4.97;1.33;;;8.70;60.10;;;;;;5069451;28;20227;-86
2023/01/12 09:46:57;;;;;;;5.97;1.70;;;8.90;53.00;;;;;;5061613;28;20684;-86
2023/01/12 09:47:18;;;;;;;3.78;1.65;;;8.90;51.20;;;;;;5028508;28;20209;-86
2023/01/12 09:49:49;;;;;;;5.45;1.73;;;8.80;54.40;;;;;;5057835;28;20213;-86
2023/01/12 09:52:19;;;;;;;3.78;1.35;;;8.80;52.90;;;;;;5064200;28;20209;-85
2023/01/12 09:54:49;;;;;;;7.25;1.92;;;8.70;53.30;;;;;;5060340;28;20205;-85
2023/01/12 09:57:55;;;;;;;3.83;1.38;;;8.70;50.80;;;;;;5061021;28;20279;-85
2023/01/12 10:00:24;;;;;;;3.15;1.33;;;8.90;50.80;;;;;;5064468;28;20197;-85
2023/01/12 10:02:55;;;;;;;5.80;1.40;;;9.00;51.40;;;;;;5066531;28;20215;-86
2023/01/12 10:05:34;;;;;;;4.28;1.55;;;9.00;53.50;;;;;;5065613;28;20213;-85
2023/01/12 10:08:01;;;;;;;3.20;1.60;;;9.00;54.70;;;;;;5058152;28;20208;-86
2023/01/12 10:10:28;;;;;;;4.57;1.42;;;9.00;56.60;;;;;;5063615;28;20201;-86
2023/01/12 10:12:58;;;;;;;5.13;1.75;;;9.10;53.00;;;;;;5063476;28;20197;-86
2023/01/12 10:15:40;;;;;;;3.72;1.50;;;9.10;55.10;;;;;;5064910;28;20208;-86
2023/01/12 10:18:14;;;;;;;3.35;1.35;;;9.10;53.50;;;;;;5057700;28;20298;-87
2023/01/12 10:20:43;;;;;;;2.97;1.35;;;9.20;48.80;;;;;;5060369;28;20216;-87
2023/01/12 10:23:17;;;;;;;7.75;1.48;;;9.20;50.00;;;;;;5060237;28;20228;-87
2023/01/12 10:25:47;;;;;;;5.63;2.10;;;9.10;55.80;;;;;;5063128;28;20580;-86
2023/01/12 10:28:19;;;;;;;2.85;1.30;;;9.00;56.60;;;;;;5061576;28;20208;-87
2023/01/12 10:30:47;;;;;;;5.18;1.60;;;9.00;56.40;;;;;;5057168;28;20233;-86
2023/01/12 10:33:17;;;;;;;4.00;1.58;;;9.00;56.30;;;;;;5067539;28;20620;-85
2023/01/12 10:38:56;;;;;;;3.33;1.30;;;9.30;64.30;;;;;;5023601;28;20232;-87
2023/01/12 10:52:38;;;;;;;2.83;1.50;;;10.00;38.50;;;;;;4981219;28;20212;-87
2023/01/12 10:55:05;;;;;;;5.60;2.63;;;10.00;37.20;;;;;;5064653;28;20212;-88
2023/01/12 10:57:34;;;;;;;8.68;6.10;;;10.00;36.30;;;;;;5066620;28;20239;-88
2023/01/12 11:00:04;;;;;;;15.18;10.18;;;10.00;35.20;;;;;;5063155;28;20205;-90
2023/01/12 11:02:44;;;;;;;4.00;2.55;;;10.20;35.30;;;;;;5058741;28;20273;-87
2023/01/12 11:27:29;;;;;;;10.18;7.38;;;10.30;31.70;;;;;;5030335;28;20239;-87
2023/01/12 11:30:01;;;;;;;1.98;1.40;;;10.40;32.40;;;;;;5029470;28;20205;-88
2023/01/12 11:38:35;;;;;;;5.60;3.97;;;10.40;31.90;;;;;;5043772;28;20222;-90
2023/01/12 11:41:08;;;;;;;5.55;4.03;;;10.30;28.30;;;;;;5041701;28;20209;-88
2023/01/12 11:43:51;;;;;;;2.88;1.55;;;10.30;29.30;;;;;;5069604;28;20204;-88
2023/01/12 11:46:23;;;;;;;1.27;1.10;;;10.30;30.90;;;;;;5065600;28;20649;-88
2023/01/12 11:52:10;;;;;;;2.47;1.10;;;10.30;30.10;;;;;;5038742;28;20201;-90
2023/01/12 11:54:46;;;;;;;8.57;6.00;;;10.20;29.60;;;;;;5069029;28;20657;-91
2023/01/12 11:57:44;;;;;;;5.53;3.05;;;10.20;29.80;;;;;;5059688;28;20622;-90
2023/01/12 12:00:37;;;;;;;4.18;1.65;;;10.30;28.60;;;;;;5067604;28;20189;-89
2023/01/12 12:03:42;;;;;;;3.15;1.10;;;10.10;29.80;;;;;;5062278;28;20213;-89
2023/01/12 12:06:30;;;;;;;6.05;3.83;;;10.20;30.90;;;;;;5047183;28;20594;-90
2023/01/12 12:09:07;;;;;;;21.88;14.70;;;10.10;31.00;;;;;;5064607;28;20995;-88
2023/01/12 12:11:42;;;;;;;3.80;1.40;;;10.20;31.70;;;;;;5069491;28;20204;-89
2023/01/12 12:17:15;;;;;;;3.85;1.40;;;10.10;30.00;;;;;;5067589;28;20204;-88
2023/01/12 12:19:55;;;;;;;2.17;1.20;;;10.00;31.00;;;;;;5068649;28;20594;-89
2023/01/12 12:22:34;;;;;;;3.25;2.60;;;10.10;31.30;;;;;;5059289;28;20710;-88
2023/01/12 12:25:18;;;;;;;7.50;3.17;;;10.00;30.60;;;;;;5066755;28;20201;-88
2023/01/12 12:27:57;;;;;;;8.13;4.38;;;9.90;32.50;;;;;;5066660;28;20225;-90
2023/01/12 12:30:47;;;;;;;4.85;2.97;;;9.90;33.30;;;;;;5065291;28;20698;-89
2023/01/12 12:33:26;;;;;;;9.68;6.78;;;9.90;34.50;;;;;;5065206;28;20557;-88
2023/01/12 12:36:03;;;;;;;5.35;3.70;;;9.90;34.60;;;;;;5064549;28;20208;-88
2023/01/12 12:38:47;;;;;;;7.15;5.28;;;9.90;34.80;;;;;;5064173;28;20225;-89
2023/01/12 12:47:34;;;;;;;4.18;2.10;;;9.80;34.70;;;;;;5065239;28;20568;-87
2023/01/12 12:50:04;;;;;;;3.65;1.38;;;9.70;33.80;;;;;;5063464;28;20216;-87
2023/01/12 12:52:33;;;;;;;2.55;1.50;;;9.70;35.10;;;;;;5060931;28;20661;-87
2023/01/12 12:55:01;;;;;;;3.10;1.98;;;9.70;35.10;;;;;;5067341;28;20205;-86
2023/01/12 12:57:28;;;;;;;5.13;2.10;;;9.70;34.60;;;;;;5064874;28;21011;-87
2023/01/12 12:59:58;;;;;;;1.95;1.33;;;9.70;34.40;;;;;;5066577;28;20580;-87
2023/01/12 13:02:53;;;;;;;3.13;1.30;;;9.80;35.10;;;;;;5065969;28;20209;-87
2023/01/12 13:05:46;;;;;;;2.00;1.38;;;9.80;35.00;;;;;;5064230;28;20217;-88
2023/01/12 13:08:20;;;;;;;6.40;3.95;;;9.80;34.70;;;;;;5060732;28;20232;-87
2023/01/12 13:10:53;;;;;;;1.92;1.40;;;9.80;35.40;;;;;;5058002;28;20197;-87
2023/01/12 13:13:26;;;;;;;5.07;1.20;;;9.80;36.70;;;;;;5068612;28;20205;-85
2023/01/12 13:16:28;;;;;;;4.07;1.90;;;9.80;34.70;;;;;;5065565;28;20213;-86
2023/01/12 13:19:07;;;;;;;2.13;1.38;;;9.80;35.40;;;;;;5064027;28;20232;-86
2023/01/12 13:21:55;;;;;;;2.25;1.13;;;9.90;34.50;;;;;;5062329;28;20274;-85
2023/01/12 13:24:39;;;;;;;1.42;0.90;;;9.90;35.40;;;;;;5067263;28;20236;-85
2023/01/12 13:27:56;;;;;;;3.15;1.60;;;9.80;35.20;;;;;;5058886;28;21001;-86
2023/01/12 13:30:39;;;;;;;2.50;1.30;;;9.70;35.30;;;;;;5042079;28;20226;-85
2023/01/12 13:33:22;;;;;;;1.67;1.10;;;9.60;36.30;;;;;;5041242;28;20220;-86
2023/01/12 13:36:08;;;;;;;2.40;1.30;;;9.60;37.40;;;;;;5054662;28;20262;-87
2023/01/12 13:38:51;;;;;;;2.47;1.27;;;9.50;38.20;;;;;;5060578;28;20221;-88
2023/01/12 13:44:12;;;;;;;1.60;1.25;;;9.60;38.40;;;;;;5055932;28;20291;-87
2023/01/12 13:46:43;;;;;;;2.28;1.17;;;9.60;38.70;;;;;;5061699;28;20256;-88
2023/01/12 13:49:27;;;;;;;3.38;1.17;;;9.60;37.90;;;;;;5057344;28;20212;-86
2023/01/12 13:51:59;;;;;;;1.92;1.00;;;9.60;36.80;;;;;;5058980;28;20194;-87
2023/01/12 13:54:28;;;;;;;1.33;1.17;;;9.50;37.80;;;;;;5064555;28;20205;-87
2023/01/12 13:56:57;;;;;;;1.70;1.08;;;9.50;39.40;;;;;;5066314;28;20278;-87
2023/01/12 13:59:25;;;;;;;4.00;1.20;;;9.50;39.40;;;;;;5064421;28;20566;-87
2023/01/12 14:01:52;;;;;;;2.60;1.17;;;9.40;40.80;;;;;;5064481;28;20206;-88
2023/01/12 14:04:56;;;;;;;1.52;1.27;;;9.40;40.60;;;;;;5065513;28;20201;-86
2023/01/12 14:07:36;;;;;;;2.78;1.17;;;9.20;42.30;;;;;;5064870;28;20224;-87
2023/01/12 14:10:17;;;;;;;3.30;1.30;;;9.20;45.00;;;;;;5065812;28;20576;-87
2023/01/12 14:12:58;;;;;;;4.20;1.20;;;9.10;44.60;;;;;;5063533;28;20201;-88
2023/01/12 14:18:15;;;;;;;2.00;1.30;;;9.10;45.70;;;;;;5064344;28;20318;-87
2023/01/12 14:20:47;;;;;;;1.77;1.02;;;9.20;47.70;;;;;;5062421;28;20572;-87
2023/01/12 14:23:17;;;;;;;2.63;1.30;;;9.30;45.80;;;;;;5062256;28;20223;-87
2023/01/12 14:25:46;;;;;;;2.45;1.30;;;9.30;45.80;;;;;;5066806;28;20205;-87
2023/01/12 14:28:18;;;;;;;3.85;1.38;;;9.20;46.20;;;;;;5063375;28;20201;-87
2023/01/12 14:30:48;;;;;;;6.72;1.25;;;9.20;47.70;;;;;;5061911;28;20623;-87
2023/01/12 14:33:22;;;;;;;1.70;0.90;;;9.20;47.70;;;;;;5060959;28;20197;-86
2023/01/12 14:35:53;;;;;;;3.28;1.20;;;9.20;47.70;;;;;;5058741;28;20239;-88
2023/01/12 14:38:21;;;;;;;2.92;1.00;;;9.20;47.70;;;;;;5063662;28;20779;-88
2023/01/12 14:40:55;;;;;;;2.78;1.20;;;9.10;47.70;;;;;;5057699;28;20209;-87